sensor_id;sensor_type;location;lat;lon;timestamp;temperature;humidity
21772;DHT22;11047;47.904;8.110;2023-01-19T00:01:40;-4.60;99.90
21772;DHT22;11047;47.904;8.110;2023-01-19T00:04:07;-4.70;99.90
21772;DHT22;11047;47.904;8.110;2023-01-19T00:06:34;-4.70;99.90
21772;DHT22;11047;47.904;8.110;2023-01-19T00:09:01;-4.70;99.90
21772;DHT22;11047;47.904;8.110;2023-01-19T00:11:28;-4.90;99.90
21772;DHT22;11047;47.904;8.110;2023-01-19T00:13:55;-4.90;99.90
21772;DHT22;11047;47.904;8.110;2023-01-19T00:16:23;-4.80;99.90
21772;DHT22;11047;47.904;8.110;2023-01-19T00:18:51;-4.90;99.90
21772;DHT22;11047;47.904;8.110;2023-01-19T00:21:19;-3.80;99.90
21772;DHT22;11047;47.904;8.110;2023-01-19T00:23:47;-5.00;99.90
21772;DHT22;11047;47.904;8.110;2023-01-19T00:26:15;-5.00;99.90
21772;DHT22;11047;47.904;8.110;2023-01-19T00:28:43;-5.00;99.90
21772;DHT22;11047;47.904;8.110;2023-01-19T00:31:10;-5.10;99.90
21772;DHT22;11047;47.904;8.110;2023-01-19T00:33:37;-5.10;99.90
21772;DHT22;11047;47.904;8.110;2023-01-19T00:36:06;-5.20;99.90
21772;DHT22;11047;47.904;8.110;2023-01-19T00:38:33;-5.20;99.90
21772;DHT22;11047;47.904;8.110;2023-01-19T00:41:00;-5.20;99.90
21772;DHT22;11047;47.904;8.110;2023-01-19T00:43:27;-5.20;99.90
21772;DHT22;11047;47.904;8.110;2023-01-19T00:45:53;-5.30;99.90
21772;DHT22;11047;47.904;8.110;2023-01-19T00:48:20;-5.40;99.90
21772;DHT22;11047;47.904;8.110;2023-01-19T00:50:47;-5.50;99.90
21772;DHT22;11047;47.904;8.110;2023-01-19T00:53:16;-5.40;99.90
21772;DHT22;11047;47.904;8.110;2023-01-19T00:55:43;-5.50;99.90
21772;DHT22;11047;47.904;8.110;2023-01-19T00:58:09;-5.50;99.90
21772;DHT22;11047;47.904;8.110;2023-01-19T01:00:36;-5.50;99.90
21772;DHT22;11047;47.904;8.110;2023-01-19T01:03:03;-5.60;99.90
21772;DHT22;11047;47.904;8.110;2023-01-19T01:05:30;-5.70;99.90
21772;DHT22;11047;47.904;8.110;2023-01-19T01:07:57;-5.60;99.90
21772;DHT22;11047;47.904;8.110;2023-01-19T01:10:26;-5.70;99.90
21772;DHT22;11047;47.904;8.110;2023-01-19T01:12:54;-5.70;99.90
21772;DHT22;11047;47.904;8.110;2023-01-19T01:15:21;-5.80;99.90
21772;DHT22;11047;47.904;8.110;2023-01-19T01:17:48;-5.80;99.90
21772;DHT22;11047;47.904;8.110;2023-01-19T01:20:23;-6.00;99.90
21772;DHT22;11047;47.904;8.110;2023-01-19T01:22:52;-5.90;99.90
21772;DHT22;11047;47.904;8.110;2023-01-19T01:25:20;-6.00;99.90
21772;DHT22;11047;47.904;8.110;2023-01-19T01:27:49;-6.00;99.90
21772;DHT22;11047;47.904;8.110;2023-01-19T01:30:17;-6.00;99.90
21772;DHT22;11047;47.904;8.110;2023-01-19T01:32:44;-6.00;99.90
21772;DHT22;11047;47.904;8.110;2023-01-19T01:35:11;-6.20;99.90
21772;DHT22;11047;47.904;8.110;2023-01-19T01:37:39;-6.20;99.90
21772;DHT22;11047;47.904;8.110;2023-01-19T01:40:09;-6.20;99.90
21772;DHT22;11047;47.904;8.110;2023-01-19T01:42:36;-6.20;99.90
21772;DHT22;11047;47.904;8.110;2023-01-19T01:45:22;-6.30;99.90
21772;DHT22;11047;47.904;8.110;2023-01-19T01:47:51;-6.30;99.90
21772;DHT22;11047;47.904;8.110;2023-01-19T01:50:20;-6.20;99.90
21772;DHT22;11047;47.904;8.110;2023-01-19T01:52:50;-6.30;99.90
21772;DHT22;11047;47.904;8.110;2023-01-19T01:55:20;-6.30;99.90
21772;DHT22;11047;47.904;8.110;2023-01-19T01:57:52;-6.30;99.90
21772;DHT22;11047;47.904;8.110;2023-01-19T02:00:23;-6.30;99.90
21772;DHT22;11047;47.904;8.110;2023-01-19T02:02:50;-6.50;99.90
21772;DHT22;11047;47.904;8.110;2023-01-19T02:05:22;-6.40;99.90
21772;DHT22;11047;47.904;8.110;2023-01-19T02:07:55;-6.50;99.90
21772;DHT22;11047;47.904;8.110;2023-01-19T02:10:41;-5.70;99.90
21772;DHT22;11047;47.904;8.110;2023-01-19T02:13:27;-6.50;99.90
21772;DHT22;11047;47.904;8.110;2023-01-19T02:15:58;-6.40;99.90
21772;DHT22;11047;47.904;8.110;2023-01-19T02:18:28;-6.50;99.90
21772;DHT22;11047;47.904;8.110;2023-01-19T02:21:00;-6.40;99.90
21772;DHT22;11047;47.904;8.110;2023-01-19T02:23:44;-6.40;99.90
21772;DHT22;11047;47.904;8.110;2023-01-19T02:26:13;-6.50;99.90
21772;DHT22;11047;47.904;8.110;2023-01-19T02:28:43;-6.60;99.90
21772;DHT22;11047;47.904;8.110;2023-01-19T02:31:11;-6.60;99.90
21772;DHT22;11047;47.904;8.110;2023-01-19T02:33:39;-6.60;99.90
21772;DHT22;11047;47.904;8.110;2023-01-19T02:36:09;-6.60;99.90
21772;DHT22;11047;47.904;8.110;2023-01-19T02:38:37;-6.60;99.90
21772;DHT22;11047;47.904;8.110;2023-01-19T02:41:08;-6.60;99.90
21772;DHT22;11047;47.904;8.110;2023-01-19T02:43:37;-6.60;99.90
21772;DHT22;11047;47.904;8.110;2023-01-19T02:46:04;-6.60;99.90
21772;DHT22;11047;47.904;8.110;2023-01-19T02:48:31;-6.60;99.90
21772;DHT22;11047;47.904;8.110;2023-01-19T02:50:59;-6.70;99.90
21772;DHT22;11047;47.904;8.110;2023-01-19T02:56:54;-6.70;99.90
21772;DHT22;11047;47.904;8.110;2023-01-19T02:59:37;-6.70;99.90
21772;DHT22;11047;47.904;8.110;2023-01-19T03:02:28;-6.70;99.90
21772;DHT22;11047;47.904;8.110;2023-01-19T03:05:04;-6.80;99.90
21772;DHT22;11047;47.904;8.110;2023-01-19T03:07:41;-6.80;99.90
21772;DHT22;11047;47.904;8.110;2023-01-19T03:10:16;-6.90;99.90
21772;DHT22;11047;47.904;8.110;2023-01-19T03:12:49;-6.90;99.90
21772;DHT22;11047;47.904;8.110;2023-01-19T03:15:20;-6.90;99.90
21772;DHT22;11047;47.904;8.110;2023-01-19T03:17:49;-7.00;99.90
21772;DHT22;11047;47.904;8.110;2023-01-19T03:20:20;-6.90;99.90
21772;DHT22;11047;47.904;8.110;2023-01-19T03:22:52;-6.90;99.90
21772;DHT22;11047;47.904;8.110;2023-01-19T03:25:21;-6.80;99.90
21772;DHT22;11047;47.904;8.110;2023-01-19T03:27:52;-6.80;99.90
21772;DHT22;11047;47.904;8.110;2023-01-19T03:30:24;-6.80;99.90
21772;DHT22;11047;47.904;8.110;2023-01-19T03:32:54;-6.80;99.90
21772;DHT22;11047;47.904;8.110;2023-01-19T03:35:23;-6.70;99.90
21772;DHT22;11047;47.904;8.110;2023-01-19T03:37:54;-6.60;99.90
21772;DHT22;11047;47.904;8.110;2023-01-19T03:40:24;-6.60;99.90
21772;DHT22;11047;47.904;8.110;2023-01-19T03:42:54;-6.70;99.90
21772;DHT22;11047;47.904;8.110;2023-01-19T03:45:21;-6.80;99.90
21772;DHT22;11047;47.904;8.110;2023-01-19T03:47:49;-6.70;99.90
21772;DHT22;11047;47.904;8.110;2023-01-19T03:50:23;-6.70;99.90
21772;DHT22;11047;47.904;8.110;2023-01-19T03:53:05;-6.90;99.90
21772;DHT22;11047;47.904;8.110;2023-01-19T03:55:32;-6.90;99.90
21772;DHT22;11047;47.904;8.110;2023-01-19T03:58:00;-6.90;99.90
21772;DHT22;11047;47.904;8.110;2023-01-19T04:00:28;-7.00;99.90
21772;DHT22;11047;47.904;8.110;2023-01-19T04:02:54;-6.90;99.90
21772;DHT22;11047;47.904;8.110;2023-01-19T04:05:21;-6.90;99.90
21772;DHT22;11047;47.904;8.110;2023-01-19T04:07:49;-6.90;99.90
21772;DHT22;11047;47.904;8.110;2023-01-19T04:10:16;-7.00;99.90
21772;DHT22;11047;47.904;8.110;2023-01-19T04:12:43;-7.10;99.90
21772;DHT22;11047;47.904;8.110;2023-01-19T04:15:11;-7.30;99.90
21772;DHT22;11047;47.904;8.110;2023-01-19T04:17:38;-7.20;99.90
21772;DHT22;11047;47.904;8.110;2023-01-19T04:20:06;-7.20;99.90
21772;DHT22;11047;47.904;8.110;2023-01-19T04:22:33;-7.20;99.90
21772;DHT22;11047;47.904;8.110;2023-01-19T04:25:00;-7.10;99.90
21772;DHT22;11047;47.904;8.110;2023-01-19T04:27:27;-7.30;99.90
21772;DHT22;11047;47.904;8.110;2023-01-19T04:29:54;-7.40;99.90
21772;DHT22;11047;47.904;8.110;2023-01-19T04:32:22;-7.40;99.90
21772;DHT22;11047;47.904;8.110;2023-01-19T04:34:49;-7.40;99.90
21772;DHT22;11047;47.904;8.110;2023-01-19T04:37:16;-7.30;99.90
21772;DHT22;11047;47.904;8.110;2023-01-19T04:39:43;-7.20;99.90
21772;DHT22;11047;47.904;8.110;2023-01-19T04:42:10;-7.30;99.90
21772;DHT22;11047;47.904;8.110;2023-01-19T04:44:37;-7.30;99.90
21772;DHT22;11047;47.904;8.110;2023-01-19T04:47:04;-7.40;99.90
21772;DHT22;11047;47.904;8.110;2023-01-19T04:52:00;-7.50;99.90
21772;DHT22;11047;47.904;8.110;2023-01-19T04:54:27;-7.40;99.90
21772;DHT22;11047;47.904;8.110;2023-01-19T04:56:54;-7.50;99.90
21772;DHT22;11047;47.904;8.110;2023-01-19T04:59:21;-7.50;99.90
21772;DHT22;11047;47.904;8.110;2023-01-19T05:01:48;-7.50;99.90
21772;DHT22;11047;47.904;8.110;2023-01-19T05:04:15;-7.50;99.90
21772;DHT22;11047;47.904;8.110;2023-01-19T05:06:42;-7.50;99.90
21772;DHT22;11047;47.904;8.110;2023-01-19T05:09:11;-7.60;99.90
21772;DHT22;11047;47.904;8.110;2023-01-19T05:11:39;-7.60;99.90
21772;DHT22;11047;47.904;8.110;2023-01-19T05:14:06;-7.50;99.90
21772;DHT22;11047;47.904;8.110;2023-01-19T05:16:33;-7.50;99.90
21772;DHT22;11047;47.904;8.110;2023-01-19T05:19:00;-7.50;99.90
21772;DHT22;11047;47.904;8.110;2023-01-19T05:21:27;-7.60;99.90
21772;DHT22;11047;47.904;8.110;2023-01-19T05:23:54;-7.60;99.90
21772;DHT22;11047;47.904;8.110;2023-01-19T05:26:22;-7.70;99.90
21772;DHT22;11047;47.904;8.110;2023-01-19T05:28:49;-7.60;99.90
21772;DHT22;11047;47.904;8.110;2023-01-19T05:31:16;-7.70;99.90
21772;DHT22;11047;47.904;8.110;2023-01-19T05:33:43;-7.80;99.90
21772;DHT22;11047;47.904;8.110;2023-01-19T05:36:10;-7.70;99.90
21772;DHT22;11047;47.904;8.110;2023-01-19T05:38:37;-7.70;99.90
21772;DHT22;11047;47.904;8.110;2023-01-19T05:41:04;-7.70;99.90
21772;DHT22;11047;47.904;8.110;2023-01-19T05:43:32;-7.70;99.90
21772;DHT22;11047;47.904;8.110;2023-01-19T05:45:59;-7.80;99.90
21772;DHT22;11047;47.904;8.110;2023-01-19T05:48:26;-7.80;99.90
21772;DHT22;11047;47.904;8.110;2023-01-19T05:50:56;-7.90;99.90
21772;DHT22;11047;47.904;8.110;2023-01-19T05:53:23;-7.80;99.90
21772;DHT22;11047;47.904;8.110;2023-01-19T05:55:50;-7.80;99.90
21772;DHT22;11047;47.904;8.110;2023-01-19T05:58:17;-7.90;99.90
21772;DHT22;11047;47.904;8.110;2023-01-19T06:00:46;-7.90;99.90
21772;DHT22;11047;47.904;8.110;2023-01-19T06:03:12;-8.00;99.90
21772;DHT22;11047;47.904;8.110;2023-01-19T06:05:39;-8.00;99.90
21772;DHT22;11047;47.904;8.110;2023-01-19T06:08:06;-8.00;99.90
21772;DHT22;11047;47.904;8.110;2023-01-19T06:10:33;-8.10;99.90
21772;DHT22;11047;47.904;8.110;2023-01-19T06:13:00;-8.00;99.90
21772;DHT22;11047;47.904;8.110;2023-01-19T06:15:27;-8.10;99.90
21772;DHT22;11047;47.904;8.110;2023-01-19T06:17:55;-8.10;99.90
21772;DHT22;11047;47.904;8.110;2023-01-19T06:20:22;-8.10;99.90
21772;DHT22;11047;47.904;8.110;2023-01-19T06:22:48;-8.00;99.90
21772;DHT22;11047;47.904;8.110;2023-01-19T06:25:15;-8.00;99.90
21772;DHT22;11047;47.904;8.110;2023-01-19T06:27:43;-8.10;99.90
21772;DHT22;11047;47.904;8.110;2023-01-19T06:30:11;-8.10;99.90
21772;DHT22;11047;47.904;8.110;2023-01-19T06:32:38;-8.00;99.90
21772;DHT22;11047;47.904;8.110;2023-01-19T06:35:07;-8.00;99.90
21772;DHT22;11047;47.904;8.110;2023-01-19T06:37:34;-8.20;99.90
21772;DHT22;11047;47.904;8.110;2023-01-19T06:40:01;-8.20;99.90
21772;DHT22;11047;47.904;8.110;2023-01-19T06:42:28;-8.20;99.90
21772;DHT22;11047;47.904;8.110;2023-01-19T06:44:55;-8.20;99.90
21772;DHT22;11047;47.904;8.110;2023-01-19T06:47:21;-8.30;99.90
21772;DHT22;11047;47.904;8.110;2023-01-19T06:49:48;-8.30;99.90
21772;DHT22;11047;47.904;8.110;2023-01-19T06:52:17;-8.30;99.90
21772;DHT22;11047;47.904;8.110;2023-01-19T06:54:45;-8.30;99.90
21772;DHT22;11047;47.904;8.110;2023-01-19T06:57:12;-8.20;99.90
21772;DHT22;11047;47.904;8.110;2023-01-19T06:59:39;-8.30;99.90
21772;DHT22;11047;47.904;8.110;2023-01-19T07:02:06;-8.20;99.90
21772;DHT22;11047;47.904;8.110;2023-01-19T07:04:33;-8.40;99.90
21772;DHT22;11047;47.904;8.110;2023-01-19T07:07:00;-8.20;99.90
21772;DHT22;11047;47.904;8.110;2023-01-19T07:09:28;-8.30;99.90
21772;DHT22;11047;47.904;8.110;2023-01-19T07:11:55;-8.30;99.90
21772;DHT22;11047;47.904;8.110;2023-01-19T07:14:22;-8.30;99.90
21772;DHT22;11047;47.904;8.110;2023-01-19T07:16:50;-8.30;99.90
21772;DHT22;11047;47.904;8.110;2023-01-19T07:19:17;-8.20;99.90
21772;DHT22;11047;47.904;8.110;2023-01-19T07:21:43;-8.40;99.90
21772;DHT22;11047;47.904;8.110;2023-01-19T07:24:10;-8.20;99.90
21772;DHT22;11047;47.904;8.110;2023-01-19T07:26:38;-8.20;99.90
21772;DHT22;11047;47.904;8.110;2023-01-19T07:29:05;-8.20;99.90
21772;DHT22;11047;47.904;8.110;2023-01-19T07:31:32;-8.10;99.90
21772;DHT22;11047;47.904;8.110;2023-01-19T07:33:59;-8.10;99.90
21772;DHT22;11047;47.904;8.110;2023-01-19T07:36:26;-8.00;99.90
21772;DHT22;11047;47.904;8.110;2023-01-19T07:38:53;-8.00;99.90
21772;DHT22;11047;47.904;8.110;2023-01-19T07:41:19;-8.10;99.90
21772;DHT22;11047;47.904;8.110;2023-01-19T07:43:48;-7.90;99.90
21772;DHT22;11047;47.904;8.110;2023-01-19T07:46:15;-7.90;99.90
21772;DHT22;11047;47.904;8.110;2023-01-19T07:48:42;-7.70;99.90
21772;DHT22;11047;47.904;8.110;2023-01-19T07:51:11;-7.50;99.90
21772;DHT22;11047;47.904;8.110;2023-01-19T07:53:42;-7.40;99.90
21772;DHT22;11047;47.904;8.110;2023-01-19T07:56:09;-7.30;99.90
21772;DHT22;11047;47.904;8.110;2023-01-19T07:58:36;-7.20;99.90
21772;DHT22;11047;47.904;8.110;2023-01-19T08:01:06;-7.10;99.90
21772;DHT22;11047;47.904;8.110;2023-01-19T08:03:33;-6.90;99.90
21772;DHT22;11047;47.904;8.110;2023-01-19T08:06:01;-6.70;99.90
21772;DHT22;11047;47.904;8.110;2023-01-19T08:08:30;-6.60;99.90
21772;DHT22;11047;47.904;8.110;2023-01-19T08:10:57;-6.50;99.90
21772;DHT22;11047;47.904;8.110;2023-01-19T08:13:24;-6.50;99.90
21772;DHT22;11047;47.904;8.110;2023-01-19T08:15:52;-6.30;99.90
21772;DHT22;11047;47.904;8.110;2023-01-19T08:18:21;-6.20;99.90
21772;DHT22;11047;47.904;8.110;2023-01-19T08:20:47;-6.20;99.90
21772;DHT22;11047;47.904;8.110;2023-01-19T08:23:14;-6.10;99.90
21772;DHT22;11047;47.904;8.110;2023-01-19T08:25:43;-6.10;99.90
21772;DHT22;11047;47.904;8.110;2023-01-19T08:28:12;-6.00;99.90
21772;DHT22;11047;47.904;8.110;2023-01-19T08:30:40;-5.90;99.90
21772;DHT22;11047;47.904;8.110;2023-01-19T08:33:08;-5.80;99.90
21772;DHT22;11047;47.904;8.110;2023-01-19T08:35:39;-5.70;99.90
21772;DHT22;11047;47.904;8.110;2023-01-19T08:38:07;-5.60;99.90
21772;DHT22;11047;47.904;8.110;2023-01-19T08:40:36;-5.60;99.90
21772;DHT22;11047;47.904;8.110;2023-01-19T08:43:05;-5.50;99.90
21772;DHT22;11047;47.904;8.110;2023-01-19T08:45:32;-5.40;99.90
21772;DHT22;11047;47.904;8.110;2023-01-19T08:48:00;-5.30;99.90
21772;DHT22;11047;47.904;8.110;2023-01-19T08:50:28;-5.20;99.90
21772;DHT22;11047;47.904;8.110;2023-01-19T08:52:57;-5.20;99.90
21772;DHT22;11047;47.904;8.110;2023-01-19T08:55:24;-5.00;99.90
21772;DHT22;11047;47.904;8.110;2023-01-19T08:57:51;-4.80;99.90
21772;DHT22;11047;47.904;8.110;2023-01-19T09:00:19;-4.70;99.90
21772;DHT22;11047;47.904;8.110;2023-01-19T09:02:47;-4.60;99.90
21772;DHT22;11047;47.904;8.110;2023-01-19T09:05:13;-4.50;99.90
21772;DHT22;11047;47.904;8.110;2023-01-19T09:07:42;-4.30;99.90
21772;DHT22;11047;47.904;8.110;2023-01-19T09:10:11;-4.20;99.90
21772;DHT22;11047;47.904;8.110;2023-01-19T09:12:38;-4.10;99.90
21772;DHT22;11047;47.904;8.110;2023-01-19T09:15:06;-3.60;99.90
21772;DHT22;11047;47.904;8.110;2023-01-19T09:17:35;-3.20;99.90
21772;DHT22;11047;47.904;8.110;2023-01-19T09:20:02;-3.10;99.90
21772;DHT22;11047;47.904;8.110;2023-01-19T09:22:30;-2.90;99.90
21772;DHT22;11047;47.904;8.110;2023-01-19T09:24:57;-2.40;99.90
21772;DHT22;11047;47.904;8.110;2023-01-19T09:27:26;-2.30;99.90
21772;DHT22;11047;47.904;8.110;2023-01-19T09:29:52;-2.30;99.90
21772;DHT22;11047;47.904;8.110;2023-01-19T09:32:20;-2.00;99.90
21772;DHT22;11047;47.904;8.110;2023-01-19T09:34:47;-1.70;99.90
21772;DHT22;11047;47.904;8.110;2023-01-19T09:37:14;-1.80;99.90
21772;DHT22;11047;47.904;8.110;2023-01-19T09:39:41;-1.80;99.90
21772;DHT22;11047;47.904;8.110;2023-01-19T09:42:16;0.10;99.90
21772;DHT22;11047;47.904;8.110;2023-01-19T09:44:46;0.20;99.90
21772;DHT22;11047;47.904;8.110;2023-01-19T09:47:18;0.00;99.90
21772;DHT22;11047;47.904;8.110;2023-01-19T09:49:51;-0.10;99.90
21772;DHT22;11047;47.904;8.110;2023-01-19T09:52:19;0.20;99.90
21772;DHT22;11047;47.904;8.110;2023-01-19T09:54:50;0.40;99.90
21772;DHT22;11047;47.904;8.110;2023-01-19T09:57:19;0.70;99.90
21772;DHT22;11047;47.904;8.110;2023-01-19T09:59:48;0.60;99.90
21772;DHT22;11047;47.904;8.110;2023-01-19T10:02:31;0.80;99.90
21772;DHT22;11047;47.904;8.110;2023-01-19T10:05:02;0.30;99.90
21772;DHT22;11047;47.904;8.110;2023-01-19T10:07:36;0.30;99.90
21772;DHT22;11047;47.904;8.110;2023-01-19T10:10:14;0.20;99.90
21772;DHT22;11047;47.904;8.110;2023-01-19T10:12:54;0.40;99.90
21772;DHT22;11047;47.904;8.110;2023-01-19T10:15:35;2.20;99.90
21772;DHT22;11047;47.904;8.110;2023-01-19T10:18:12;3.00;99.90
21772;DHT22;11047;47.904;8.110;2023-01-19T10:20:42;2.50;99.90
21772;DHT22;11047;47.904;8.110;2023-01-19T10:26:08;2.60;99.90
21772;DHT22;11047;47.904;8.110;2023-01-19T10:28:37;1.90;99.90
21772;DHT22;11047;47.904;8.110;2023-01-19T10:31:06;2.30;99.90
21772;DHT22;11047;47.904;8.110;2023-01-19T10:33:34;1.50;99.90
21772;DHT22;11047;47.904;8.110;2023-01-19T10:36:14;1.30;99.90
21772;DHT22;11047;47.904;8.110;2023-01-19T10:38:42;1.40;99.90
21772;DHT22;11047;47.904;8.110;2023-01-19T10:41:13;1.50;99.90
21772;DHT22;11047;47.904;8.110;2023-01-19T10:43:42;2.80;99.90
21772;DHT22;11047;47.904;8.110;2023-01-19T10:46:32;3.80;99.90
21772;DHT22;11047;47.904;8.110;2023-01-19T10:49:00;4.50;99.90
21772;DHT22;11047;47.904;8.110;2023-01-19T10:51:27;4.50;99.90
21772;DHT22;11047;47.904;8.110;2023-01-19T10:53:59;4.90;99.90
21772;DHT22;11047;47.904;8.110;2023-01-19T10:56:31;4.10;99.90
21772;DHT22;11047;47.904;8.110;2023-01-19T10:59:02;3.30;99.90
21772;DHT22;11047;47.904;8.110;2023-01-19T11:04:26;2.70;99.90
21772;DHT22;11047;47.904;8.110;2023-01-19T11:17:32;2.60;99.90
21772;DHT22;11047;47.904;8.110;2023-01-19T11:20:00;1.40;99.90
21772;DHT22;11047;47.904;8.110;2023-01-19T11:22:29;1.60;99.90
21772;DHT22;11047;47.904;8.110;2023-01-19T11:25:02;1.30;99.90
21772;DHT22;11047;47.904;8.110;2023-01-19T11:27:33;1.00;99.90
21772;DHT22;11047;47.904;8.110;2023-01-19T11:30:05;1.20;99.90
21772;DHT22;11047;47.904;8.110;2023-01-19T11:32:36;1.40;99.90
21772;DHT22;11047;47.904;8.110;2023-01-19T11:35:28;1.50;99.90
21772;DHT22;11047;47.904;8.110;2023-01-19T11:38:05;1.40;99.90
21772;DHT22;11047;47.904;8.110;2023-01-19T11:40:32;1.50;99.90
21772;DHT22;11047;47.904;8.110;2023-01-19T11:43:00;1.50;99.90
21772;DHT22;11047;47.904;8.110;2023-01-19T11:45:27;1.50;99.90
21772;DHT22;11047;47.904;8.110;2023-01-19T11:47:56;1.60;99.90
21772;DHT22;11047;47.904;8.110;2023-01-19T11:50:26;1.50;99.90
21772;DHT22;11047;47.904;8.110;2023-01-19T11:52:58;1.20;99.90
21772;DHT22;11047;47.904;8.110;2023-01-19T11:55:32;1.20;99.90
21772;DHT22;11047;47.904;8.110;2023-01-19T11:58:02;1.50;99.90
21772;DHT22;11047;47.904;8.110;2023-01-19T12:00:33;1.60;99.90
21772;DHT22;11047;47.904;8.110;2023-01-19T12:03:09;1.90;99.90
21772;DHT22;11047;47.904;8.110;2023-01-19T12:05:40;1.80;99.90
21772;DHT22;11047;47.904;8.110;2023-01-19T12:08:12;2.30;99.90
21772;DHT22;11047;47.904;8.110;2023-01-19T12:10:44;2.10;99.90
21772;DHT22;11047;47.904;8.110;2023-01-19T12:13:19;2.10;99.90
21772;DHT22;11047;47.904;8.110;2023-01-19T12:15:47;1.80;99.90
21772;DHT22;11047;47.904;8.110;2023-01-19T12:18:21;1.70;99.90
21772;DHT22;11047;47.904;8.110;2023-01-19T12:20:50;1.60;99.90
21772;DHT22;11047;47.904;8.110;2023-01-19T12:23:30;1.80;99.90
21772;DHT22;11047;47.904;8.110;2023-01-19T12:26:05;2.20;99.90
21772;DHT22;11047;47.904;8.110;2023-01-19T12:28:37;1.40;99.90
21772;DHT22;11047;47.904;8.110;2023-01-19T12:31:05;1.10;99.90
21772;DHT22;11047;47.904;8.110;2023-01-19T12:33:35;0.60;99.90
21772;DHT22;11047;47.904;8.110;2023-01-19T12:36:07;0.40;99.90
21772;DHT22;11047;47.904;8.110;2023-01-19T12:38:53;0.10;99.90
21772;DHT22;11047;47.904;8.110;2023-01-19T12:41:27;-0.10;99.90
21772;DHT22;11047;47.904;8.110;2023-01-19T12:44:20;1.00;99.90
21772;DHT22;11047;47.904;8.110;2023-01-19T12:46:49;-0.20;99.90
21772;DHT22;11047;47.904;8.110;2023-01-19T12:49:23;-0.60;99.90
21772;DHT22;11047;47.904;8.110;2023-01-19T12:51:53;-0.60;99.90
21772;DHT22;11047;47.904;8.110;2023-01-19T12:54:27;-0.60;99.90
21772;DHT22;11047;47.904;8.110;2023-01-19T12:56:57;-0.60;99.90
21772;DHT22;11047;47.904;8.110;2023-01-19T12:59:26;-0.60;99.90
21772;DHT22;11047;47.904;8.110;2023-01-19T13:08:16;-0.80;99.90
21772;DHT22;11047;47.904;8.110;2023-01-19T13:11:11;-0.90;99.90
21772;DHT22;11047;47.904;8.110;2023-01-19T13:13:39;-0.70;99.90
21772;DHT22;11047;47.904;8.110;2023-01-19T13:19:15;-0.80;99.90
21772;DHT22;11047;47.904;8.110;2023-01-19T13:21:45;-0.70;99.90
21772;DHT22;11047;47.904;8.110;2023-01-19T13:24:14;-0.70;99.90
21772;DHT22;11047;47.904;8.110;2023-01-19T13:26:51;-0.70;99.90
21772;DHT22;11047;47.904;8.110;2023-01-19T13:29:25;-0.70;99.90
21772;DHT22;11047;47.904;8.110;2023-01-19T13:31:53;-0.30;99.90
21772;DHT22;11047;47.904;8.110;2023-01-19T13:34:28;-0.70;99.90
21772;DHT22;11047;47.904;8.110;2023-01-19T13:36:57;-0.60;99.90
21772;DHT22;11047;47.904;8.110;2023-01-19T13:39:27;-0.60;99.90
21772;DHT22;11047;47.904;8.110;2023-01-19T13:41:57;-0.30;99.90
21772;DHT22;11047;47.904;8.110;2023-01-19T13:44:27;-0.60;99.90
21772;DHT22;11047;47.904;8.110;2023-01-19T13:46:56;-0.50;99.90
21772;DHT22;11047;47.904;8.110;2023-01-19T13:49:28;-0.70;99.90
21772;DHT22;11047;47.904;8.110;2023-01-19T13:52:11;-0.80;99.90
21772;DHT22;11047;47.904;8.110;2023-01-19T13:54:46;-0.80;99.90
21772;DHT22;11047;47.904;8.110;2023-01-19T13:57:24;-1.00;99.90
21772;DHT22;11047;47.904;8.110;2023-01-19T14:00:04;-1.00;99.90
21772;DHT22;11047;47.904;8.110;2023-01-19T14:02:31;-1.00;99.90
21772;DHT22;11047;47.904;8.110;2023-01-19T14:05:12;-1.10;99.90
21772;DHT22;11047;47.904;8.110;2023-01-19T14:07:40;-1.10;99.90
21772;DHT22;11047;47.904;8.110;2023-01-19T14:10:12;-1.10;99.90
21772;DHT22;11047;47.904;8.110;2023-01-19T14:12:39;-1.10;99.90
21772;DHT22;11047;47.904;8.110;2023-01-19T14:15:10;-1.00;99.90
21772;DHT22;11047;47.904;8.110;2023-01-19T14:17:39;-1.10;99.90
21772;DHT22;11047;47.904;8.110;2023-01-19T14:20:27;-0.60;99.90
21772;DHT22;11047;47.904;8.110;2023-01-19T14:22:55;-0.90;99.90
21772;DHT22;11047;47.904;8.110;2023-01-19T14:25:27;-0.80;99.90
21772;DHT22;11047;47.904;8.110;2023-01-19T14:28:28;-0.80;99.90
21772;DHT22;11047;47.904;8.110;2023-01-19T14:30:56;-0.80;99.90
21772;DHT22;11047;47.904;8.110;2023-01-19T14:33:34;-0.80;99.90
21772;DHT22;11047;47.904;8.110;2023-01-19T14:36:09;-0.70;99.90
21772;DHT22;11047;47.904;8.110;2023-01-19T14:38:42;-0.80;99.90
21772;DHT22;11047;47.904;8.110;2023-01-19T14:41:09;-0.60;99.90
21772;DHT22;11047;47.904;8.110;2023-01-19T14:43:37;-0.80;99.90
21772;DHT22;11047;47.904;8.110;2023-01-19T14:46:15;-0.80;99.90
21772;DHT22;11047;47.904;8.110;2023-01-19T14:48:45;-0.80;99.90
21772;DHT22;11047;47.904;8.110;2023-01-19T14:51:17;-0.90;99.90
21772;DHT22;11047;47.904;8.110;2023-01-19T14:53:49;-0.80;99.90
21772;DHT22;11047;47.904;8.110;2023-01-19T14:56:24;-0.90;99.90
21772;DHT22;11047;47.904;8.110;2023-01-19T14:58:51;-0.90;99.90
21772;DHT22;11047;47.904;8.110;2023-01-19T15:01:18;-0.90;99.90
21772;DHT22;11047;47.904;8.110;2023-01-19T15:03:44;-0.90;99.90
21772;DHT22;11047;47.904;8.110;2023-01-19T15:06:13;-0.90;99.90
21772;DHT22;11047;47.904;8.110;2023-01-19T15:08:41;-1.00;99.90
21772;DHT22;11047;47.904;8.110;2023-01-19T15:11:14;-1.00;99.90
21772;DHT22;11047;47.904;8.110;2023-01-19T15:13:43;-0.90;99.90
21772;DHT22;11047;47.904;8.110;2023-01-19T15:16:10;-1.00;99.90
21772;DHT22;11047;47.904;8.110;2023-01-19T15:18:37;-1.10;99.90
21772;DHT22;11047;47.904;8.110;2023-01-19T15:21:05;-1.00;99.90
21772;DHT22;11047;47.904;8.110;2023-01-19T15:23:32;-1.10;99.90
21772;DHT22;11047;47.904;8.110;2023-01-19T15:25:59;-1.10;99.90
21772;DHT22;11047;47.904;8.110;2023-01-19T15:28:28;-1.00;99.90
21772;DHT22;11047;47.904;8.110;2023-01-19T15:30:56;-1.00;99.90
21772;DHT22;11047;47.904;8.110;2023-01-19T15:33:25;-1.00;99.90
21772;DHT22;11047;47.904;8.110;2023-01-19T15:35:52;-1.00;99.90
21772;DHT22;11047;47.904;8.110;2023-01-19T15:38:19;-1.00;99.90
21772;DHT22;11047;47.904;8.110;2023-01-19T15:40:47;-1.10;99.90
21772;DHT22;11047;47.904;8.110;2023-01-19T15:43:14;-1.20;99.90
21772;DHT22;11047;47.904;8.110;2023-01-19T15:45:43;-0.50;99.90
21772;DHT22;11047;47.904;8.110;2023-01-19T15:48:12;-1.10;99.90
21772;DHT22;11047;47.904;8.110;2023-01-19T15:50:41;-1.00;99.90
21772;DHT22;11047;47.904;8.110;2023-01-19T15:53:12;-0.20;99.90
21772;DHT22;11047;47.904;8.110;2023-01-19T15:55:40;-1.20;99.90
21772;DHT22;11047;47.904;8.110;2023-01-19T15:58:07;-1.20;99.90
21772;DHT22;11047;47.904;8.110;2023-01-19T16:00:34;-1.10;99.90
21772;DHT22;11047;47.904;8.110;2023-01-19T16:03:03;-1.20;99.90
21772;DHT22;11047;47.904;8.110;2023-01-19T16:05:30;-1.10;99.90
21772;DHT22;11047;47.904;8.110;2023-01-19T16:07:57;-1.20;99.90
21772;DHT22;11047;47.904;8.110;2023-01-19T16:10:24;-1.30;99.90
21772;DHT22;11047;47.904;8.110;2023-01-19T16:12:51;-1.30;99.90
21772;DHT22;11047;47.904;8.110;2023-01-19T16:15:18;-1.30;99.90
21772;DHT22;11047;47.904;8.110;2023-01-19T16:17:47;-1.10;99.90
21772;DHT22;11047;47.904;8.110;2023-01-19T16:20:15;-1.20;99.90